createdAt,value
2023-04-09T00:00:00.213Z,0.00
2023-04-09T00:01:00.181Z,0.00
2023-04-09T00:02:00.173Z,0.00
2023-04-09T00:03:00.164Z,0.00
2023-04-09T00:04:00.261Z,0.00
2023-04-09T00:05:00.099Z,0.00
2023-04-09T00:06:00.129Z,0.00
2023-04-09T00:07:00.073Z,0.00
2023-04-09T00:08:00.078Z,0.00
2023-04-09T00:09:00.050Z,0.00
2023-04-09T00:10:00.076Z,0.00
2023-04-09T00:11:00.032Z,0.00
2023-04-09T00:12:00.028Z,0.00
2023-04-09T00:13:00.004Z,0.00
2023-04-09T00:14:00.000Z,0.00
2023-04-09T00:14:59.987Z,0.00
2023-04-09T00:15:59.991Z,0.00
2023-04-09T00:16:59.990Z,0.00
2023-04-09T00:18:00.071Z,0.00
2023-04-09T00:18:59.963Z,0.00
2023-04-09T00:19:59.940Z,0.00
2023-04-09T00:20:59.912Z,0.00
2023-04-09T00:21:59.912Z,0.00
2023-04-09T00:22:59.904Z,0.00
2023-04-09T00:23:59.890Z,0.00
2023-04-09T00:24:59.867Z,0.00
2023-04-09T00:25:59.862Z,0.00
2023-04-09T00:26:59.845Z,0.00
2023-04-09T00:27:59.836Z,0.00
2023-04-09T00:28:59.822Z,0.00
2023-04-09T00:29:59.816Z,0.00
2023-04-09T00:30:59.803Z,0.00
2023-04-09T00:31:59.824Z,0.00
2023-04-09T00:32:59.821Z,0.00
2023-04-09T00:33:59.772Z,0.00
2023-04-09T00:34:59.756Z,0.00
2023-04-09T00:35:59.790Z,0.00
2023-04-09T00:36:59.740Z,0.00
2023-04-09T00:37:59.720Z,0.00
2023-04-09T00:38:59.707Z,0.00
2023-04-09T00:39:59.697Z,0.00
2023-04-09T00:40:59.684Z,0.00
2023-04-09T00:41:59.698Z,0.00
2023-04-09T00:42:59.666Z,0.00
2023-04-09T00:43:59.653Z,0.00
2023-04-09T00:44:59.653Z,0.00
2023-04-09T00:45:59.674Z,0.00
2023-04-09T00:46:59.632Z,0.00
2023-04-09T00:47:59.638Z,0.00
2023-04-09T00:48:59.634Z,0.00
2023-04-09T00:49:59.586Z,0.00
2023-04-09T00:50:59.584Z,0.00
2023-04-09T00:51:59.568Z,0.00
2023-04-09T00:52:59.554Z,0.00
2023-04-09T00:53:59.541Z,0.00
2023-04-09T00:54:59.533Z,0.00
2023-04-09T00:55:59.519Z,0.00
2023-04-09T00:56:59.506Z,0.00
2023-04-09T00:57:59.519Z,0.00
2023-04-09T00:58:59.491Z,0.00
2023-04-09T00:59:59.482Z,0.00
2023-04-09T01:00:59.488Z,0.00
2023-04-09T01:01:59.574Z,0.00
2023-04-09T01:02:59.513Z,0.00
2023-04-09T01:03:59.431Z,0.00
2023-04-09T01:04:59.448Z,0.00
2023-04-09T01:05:59.412Z,0.00
2023-04-09T01:06:59.392Z,0.00
2023-04-09T01:07:59.395Z,0.00
2023-04-09T01:08:59.372Z,0.00
2023-04-09T01:09:59.369Z,0.00
2023-04-09T01:10:59.341Z,0.00
2023-04-09T01:11:59.338Z,0.00
2023-04-09T01:12:59.326Z,0.00
2023-04-09T01:13:59.310Z,0.00
2023-04-09T01:14:59.302Z,0.00
2023-04-09T01:15:59.286Z,0.00
2023-04-09T01:16:59.309Z,0.00
2023-04-09T01:17:59.318Z,0.00
2023-04-09T01:18:59.315Z,0.00
2023-04-09T01:19:59.246Z,0.00
2023-04-09T01:20:59.270Z,0.00
2023-04-09T01:21:59.228Z,0.00
2023-04-09T01:22:59.213Z,0.00
2023-04-09T01:23:59.232Z,0.00
2023-04-09T01:24:59.184Z,0.00
2023-04-09T01:25:59.169Z,0.00
2023-04-09T01:26:59.160Z,0.00
2023-04-09T01:27:59.173Z,0.00
2023-04-09T01:28:59.148Z,0.00
2023-04-09T01:29:59.130Z,0.00
2023-04-09T01:30:59.224Z,0.00
2023-04-09T01:32:00.154Z,0.00
2023-04-09T01:32:59.623Z,0.00
2023-04-09T01:33:59.092Z,0.00
2023-04-09T01:34:59.071Z,0.00
2023-04-09T01:35:59.118Z,0.00
2023-04-09T01:36:59.082Z,0.00
2023-04-09T01:37:59.046Z,0.00
2023-04-09T01:38:59.022Z,0.00
2023-04-09T01:39:59.028Z,0.00
2023-04-09T01:40:59.012Z,0.00
2023-04-09T01:41:58.989Z,0.00
2023-04-09T01:42:58.984Z,0.00
2023-04-09T01:43:59.000Z,0.00
2023-04-09T01:44:58.956Z,0.00
2023-04-09T01:45:58.970Z,0.00
2023-04-09T01:46:58.935Z,0.00
2023-04-09T01:47:58.971Z,0.00
2023-04-09T01:48:58.936Z,0.00
2023-04-09T01:49:58.899Z,0.00
2023-04-09T01:50:58.922Z,0.00
2023-04-09T01:51:58.906Z,0.00
2023-04-09T01:52:58.890Z,0.00
2023-04-09T01:53:58.867Z,0.00
2023-04-09T01:54:58.852Z,0.00
2023-04-09T01:55:58.841Z,0.00
2023-04-09T01:56:58.822Z,0.00
2023-04-09T01:57:58.821Z,0.00
2023-04-09T01:58:58.796Z,0.00
2023-04-09T01:59:58.785Z,0.00
2023-04-09T02:00:58.808Z,0.00
2023-04-09T02:01:58.883Z,0.00
2023-04-09T02:02:59.022Z,0.00
2023-04-09T02:03:58.919Z,0.00
2023-04-09T02:04:58.804Z,0.00
2023-04-09T02:05:58.723Z,0.00
2023-04-09T02:06:58.773Z,0.00
2023-04-09T02:07:58.720Z,0.00
2023-04-09T02:08:58.713Z,0.00
2023-04-09T02:09:58.681Z,0.00
2023-04-09T02:10:58.687Z,0.00
2023-04-09T02:11:58.650Z,0.00
2023-04-09T02:12:58.656Z,0.00
2023-04-09T02:13:58.641Z,0.00
2023-04-09T02:14:58.613Z,0.00
2023-04-09T02:15:58.634Z,0.00
2023-04-09T02:16:58.598Z,0.00
2023-04-09T02:17:58.599Z,0.00
2023-04-09T02:18:58.574Z,0.00
2023-04-09T02:19:58.556Z,0.00
2023-04-09T02:20:58.581Z,0.00
2023-04-09T02:21:58.539Z,0.00
2023-04-09T02:22:58.524Z,0.00
2023-04-09T02:23:58.520Z,0.00
2023-04-09T02:24:58.524Z,0.00
2023-04-09T02:25:58.489Z,0.00
2023-04-09T02:26:58.495Z,0.00
2023-04-09T02:27:58.468Z,0.00
2023-04-09T02:28:58.457Z,0.00
2023-04-09T02:29:58.448Z,0.00
2023-04-09T02:30:58.481Z,0.00
2023-04-09T02:31:58.422Z,0.00
2023-04-09T02:32:58.463Z,0.00
2023-04-09T02:33:58.413Z,0.00
2023-04-09T02:34:58.399Z,0.00
2023-04-09T02:35:58.440Z,0.00
2023-04-09T02:36:58.368Z,0.00
2023-04-09T02:37:58.354Z,0.00
2023-04-09T02:38:58.343Z,0.00
2023-04-09T02:39:58.333Z,0.00
2023-04-09T02:40:58.342Z,0.00
2023-04-09T02:41:58.320Z,0.00
2023-04-09T02:42:58.317Z,0.00
2023-04-09T02:43:58.303Z,0.00
2023-04-09T02:44:58.278Z,0.00
2023-04-09T02:45:58.295Z,0.00
2023-04-09T02:46:58.251Z,0.00
2023-04-09T02:47:58.240Z,0.00
2023-04-09T02:48:58.231Z,0.00
2023-04-09T02:49:58.231Z,0.00
2023-04-09T02:50:58.212Z,0.00
2023-04-09T02:51:58.196Z,0.00
2023-04-09T02:52:58.215Z,0.00
2023-04-09T02:53:58.175Z,0.00
2023-04-09T02:54:58.176Z,0.00
2023-04-09T02:55:58.151Z,0.00
2023-04-09T02:56:58.165Z,0.00
2023-04-09T02:57:58.134Z,0.00
2023-04-09T02:58:58.118Z,0.00
2023-04-09T02:59:58.107Z,0.00
2023-04-09T03:00:58.099Z,0.00
2023-04-09T03:01:58.220Z,0.00
2023-04-09T03:02:58.273Z,0.00
2023-04-09T03:03:58.179Z,0.00
2023-04-09T03:04:58.054Z,0.00
2023-04-09T03:05:58.046Z,0.00
2023-04-09T03:06:58.028Z,0.00
2023-04-09T03:07:58.014Z,0.00
2023-04-09T03:08:58.013Z,0.00
2023-04-09T03:09:57.993Z,0.00
2023-04-09T03:10:58.000Z,0.00
2023-04-09T03:11:57.975Z,0.00
2023-04-09T03:12:57.999Z,0.00
2023-04-09T03:13:57.948Z,0.00
2023-04-09T03:14:57.937Z,0.00
2023-04-09T03:15:57.945Z,0.00
2023-04-09T03:16:57.918Z,0.00
2023-04-09T03:17:57.919Z,0.00
2023-04-09T03:18:57.892Z,0.00
2023-04-09T03:19:57.900Z,0.00
2023-04-09T03:20:57.871Z,0.00
2023-04-09T03:21:57.855Z,0.00
2023-04-09T03:22:57.845Z,0.00
2023-04-09T03:23:57.835Z,0.00
2023-04-09T03:24:57.834Z,0.00
2023-04-09T03:25:57.809Z,0.00
2023-04-09T03:26:57.802Z,0.00
2023-04-09T03:27:57.805Z,0.00
2023-04-09T03:28:57.803Z,0.00
2023-04-09T03:29:57.764Z,0.00
2023-04-09T03:30:57.843Z,0.00
2023-04-09T03:31:57.814Z,0.00
2023-04-09T03:32:57.865Z,0.00
2023-04-09T03:33:57.849Z,0.00
2023-04-09T03:34:57.833Z,0.00
2023-04-09T03:35:57.868Z,0.00
2023-04-09T03:36:57.863Z,0.00
2023-04-09T03:37:57.717Z,0.00
2023-04-09T03:38:57.668Z,0.00
2023-04-09T03:39:57.657Z,0.00
2023-04-09T03:40:57.642Z,0.00
2023-04-09T03:41:57.632Z,0.00
2023-04-09T03:42:57.624Z,0.00
2023-04-09T03:43:57.613Z,0.00
2023-04-09T03:44:57.623Z,0.00
2023-04-09T03:45:57.583Z,0.00
2023-04-09T03:46:57.689Z,0.00
2023-04-09T03:47:58.146Z,0.00
2023-04-09T03:48:57.589Z,0.00
2023-04-09T03:49:57.553Z,0.00
2023-04-09T03:50:57.548Z,0.00
2023-04-09T03:51:57.549Z,0.00
2023-04-09T03:52:57.556Z,0.00
2023-04-09T03:53:57.559Z,0.00
2023-04-09T03:54:57.480Z,0.00
2023-04-09T03:55:57.466Z,0.00
2023-04-09T03:56:57.462Z,0.00
2023-04-09T03:57:57.446Z,0.00
2023-04-09T03:58:57.446Z,0.00
2023-04-09T03:59:57.422Z,0.00
2023-04-09T04:00:57.436Z,0.00
2023-04-09T04:01:57.488Z,0.00
2023-04-09T04:02:57.550Z,0.00
2023-04-09T04:03:57.424Z,0.00
2023-04-09T04:04:57.366Z,0.00
2023-04-09T04:05:57.359Z,0.00
2023-04-09T04:06:57.348Z,4.00
2023-04-09T04:07:57.337Z,4.00
2023-04-09T04:08:57.322Z,0.00
2023-04-09T04:09:57.310Z,0.00
2023-04-09T04:10:57.299Z,4.00
2023-04-09T04:11:57.284Z,4.00
2023-04-09T04:12:57.286Z,4.00
2023-04-09T04:13:57.262Z,4.00
2023-04-09T04:14:57.257Z,8.00
2023-04-09T04:15:57.281Z,4.00
2023-04-09T04:16:57.260Z,8.00
2023-04-09T04:17:57.233Z,12.00
2023-04-09T04:18:57.208Z,12.00
2023-04-09T04:19:57.195Z,16.00
2023-04-09T04:20:57.193Z,16.00
2023-04-09T04:21:57.176Z,16.00
2023-04-09T04:22:57.164Z,24.00
2023-04-09T04:23:57.151Z,24.00
2023-04-09T04:24:57.140Z,28.00
2023-04-09T04:25:57.127Z,40.00
2023-04-09T04:26:57.135Z,44.00
2023-04-09T04:27:57.107Z,52.00
2023-04-09T04:28:57.100Z,56.00
2023-04-09T04:29:57.086Z,60.00
2023-04-09T04:30:57.080Z,64.00
2023-04-09T04:31:57.119Z,68.00
2023-04-09T04:32:57.106Z,76.00
2023-04-09T04:33:57.041Z,88.00
2023-04-09T04:34:57.035Z,100.00
2023-04-09T04:35:57.068Z,112.00
2023-04-09T04:36:57.011Z,124.00
2023-04-09T04:37:56.996Z,128.00
2023-04-09T04:38:56.992Z,132.00
2023-04-09T04:39:56.973Z,140.00
2023-04-09T04:40:56.965Z,152.00
2023-04-09T04:41:56.960Z,164.00
2023-04-09T04:42:56.947Z,180.00
2023-04-09T04:43:56.936Z,200.00
2023-04-09T04:44:56.922Z,216.00
2023-04-09T04:45:56.935Z,228.00
2023-04-09T04:46:56.906Z,244.00
2023-04-09T04:47:56.938Z,256.00
2023-04-09T04:48:56.902Z,276.00
2023-04-09T04:49:56.864Z,284.00
2023-04-09T04:50:56.855Z,296.00
2023-04-09T04:51:56.859Z,320.00
2023-04-09T04:52:56.837Z,360.00
2023-04-09T04:53:56.825Z,380.00
2023-04-09T04:54:56.812Z,396.00
2023-04-09T04:55:56.792Z,420.00
2023-04-09T04:56:56.865Z,456.00
2023-04-09T04:57:56.773Z,492.00
2023-04-09T04:58:56.764Z,524.00
2023-04-09T04:59:56.751Z,556.00
2023-04-09T05:00:56.783Z,592.00
2023-04-09T05:01:56.830Z,648.00
2023-04-09T05:02:56.822Z,712.00
2023-04-09T05:03:56.959Z,768.00
2023-04-09T05:04:56.718Z,824.00
2023-04-09T05:05:56.681Z,884.00
2023-04-09T05:06:56.671Z,924.00
2023-04-09T05:07:56.659Z,936.00
2023-04-09T05:08:56.646Z,964.00
2023-04-09T05:09:56.636Z,1028.00
2023-04-09T05:10:56.638Z,1112.00
2023-04-09T05:11:56.613Z,1180.00
2023-04-09T05:12:56.605Z,1252.00
2023-04-09T05:13:56.599Z,1356.00
2023-04-09T05:14:56.581Z,1468.00
2023-04-09T05:15:56.579Z,1548.00
2023-04-09T05:16:56.717Z,1604.00
2023-04-09T05:17:56.604Z,1696.00
2023-04-09T05:18:56.539Z,1800.00
2023-04-09T05:19:56.528Z,1868.00
2023-04-09T05:20:56.558Z,1900.00
2023-04-09T05:21:56.500Z,1936.00
2023-04-09T05:22:56.491Z,1976.00
2023-04-09T05:23:56.486Z,2032.00
2023-04-09T05:24:56.468Z,2036.00
2023-04-09T05:25:56.455Z,1992.00
2023-04-09T05:26:56.445Z,1948.00
2023-04-09T05:27:56.433Z,1920.00
2023-04-09T05:28:56.421Z,1952.00
2023-04-09T05:29:57.312Z,2044.00
2023-04-09T05:30:56.455Z,2100.00
2023-04-09T05:31:56.386Z,2112.00
2023-04-09T05:32:56.405Z,2092.00
2023-04-09T05:33:56.368Z,2064.00
2023-04-09T05:34:56.355Z,2080.00
2023-04-09T05:35:56.408Z,2168.00
2023-04-09T05:36:56.362Z,2260.00
2023-04-09T05:37:56.319Z,2320.00
2023-04-09T05:38:56.381Z,2468.00
2023-04-09T05:39:56.300Z,2748.00
2023-04-09T05:40:56.290Z,3060.00
2023-04-09T05:41:56.279Z,3292.00
2023-04-09T05:42:56.270Z,3580.00
2023-04-09T05:43:56.762Z,4060.00
2023-04-09T05:44:56.246Z,4292.00
2023-04-09T05:45:56.244Z,4140.00
2023-04-09T05:46:56.225Z,3980.00
2023-04-09T05:47:56.240Z,3980.00
2023-04-09T05:48:56.202Z,4080.00
2023-04-09T05:49:56.199Z,4236.00
2023-04-09T05:50:56.186Z,4284.00
2023-04-09T05:51:56.181Z,4252.00
2023-04-09T05:52:56.181Z,4388.00
2023-04-09T05:53:56.143Z,4796.00
2023-04-09T05:54:56.137Z,5196.00
2023-04-09T05:55:56.132Z,5328.00
2023-04-09T05:56:56.119Z,5164.00
2023-04-09T05:57:56.098Z,4856.00
2023-04-09T05:58:56.092Z,4728.00
2023-04-09T05:59:56.100Z,4932.00
2023-04-09T06:00:56.066Z,5408.00
2023-04-09T06:01:56.075Z,5884.00
2023-04-09T06:02:56.120Z,6452.00
2023-04-09T06:03:58.286Z,7092.00
2023-04-09T06:04:56.127Z,7060.00
2023-04-09T06:05:56.007Z,6608.00
2023-04-09T06:06:55.992Z,6444.00
2023-04-09T06:07:55.982Z,6776.00
2023-04-09T06:08:56.000Z,7348.00
2023-04-09T06:09:55.976Z,7816.00
2023-04-09T06:10:55.951Z,7912.00
2023-04-09T06:11:55.942Z,7680.00
2023-04-09T06:12:55.932Z,7424.00
2023-04-09T06:13:55.917Z,7384.00
2023-04-09T06:14:55.902Z,7540.00
2023-04-09T06:15:55.928Z,7576.00
2023-04-09T06:16:55.887Z,7644.00
2023-04-09T06:17:58.137Z,8028.00
2023-04-09T06:18:55.859Z,8348.00
2023-04-09T06:19:55.847Z,8052.00
2023-04-09T06:20:55.840Z,7908.00
2023-04-09T06:21:55.826Z,8656.00
2023-04-09T06:22:55.813Z,9232.00
2023-04-09T06:23:55.802Z,9104.00
2023-04-09T06:24:55.818Z,9388.00
2023-04-09T06:25:55.792Z,10264.00
2023-04-09T06:26:55.774Z,10436.00
2023-04-09T06:27:55.763Z,9756.00
2023-04-09T06:28:55.749Z,9524.00
2023-04-09T06:29:55.734Z,9872.00
2023-04-09T06:30:55.771Z,10504.00
2023-04-09T06:31:55.710Z,13220.00
2023-04-09T06:32:55.809Z,13384.00
2023-04-09T06:33:56.098Z,13768.00
2023-04-09T06:34:55.679Z,12780.00
2023-04-09T06:35:55.695Z,13048.00
2023-04-09T06:36:55.680Z,11368.00
2023-04-09T06:37:55.661Z,12476.00
2023-04-09T06:38:55.633Z,10764.00
2023-04-09T06:40:01.083Z,13112.00
2023-04-09T06:40:55.635Z,14136.00
2023-04-09T06:41:55.601Z,14936.00
2023-04-09T06:42:55.590Z,12852.00
2023-04-09T06:43:55.577Z,12472.00
2023-04-09T06:44:55.567Z,13492.00
2023-04-09T06:45:55.552Z,16512.00
2023-04-09T06:46:55.725Z,17504.00
2023-04-09T06:47:55.576Z,16288.00
2023-04-09T06:48:55.530Z,13092.00
2023-04-09T06:49:55.507Z,13840.00
2023-04-09T06:50:55.498Z,13896.00
2023-04-09T06:51:55.485Z,14352.00
2023-04-09T06:52:55.484Z,14548.00
2023-04-09T06:53:55.840Z,14552.00
2023-04-09T06:54:55.453Z,14324.00
2023-04-09T06:55:57.017Z,12524.00
2023-04-09T06:56:55.461Z,11568.00
2023-04-09T06:57:55.429Z,10416.00
2023-04-09T06:58:55.410Z,11040.00
2023-04-09T06:59:55.405Z,12096.00
2023-04-09T07:00:55.388Z,11200.00
2023-04-09T07:01:55.419Z,14624.00
2023-04-09T07:02:55.602Z,15328.00
2023-04-09T07:03:55.614Z,13488.00
2023-04-09T07:04:55.342Z,11620.00
2023-04-09T07:05:55.331Z,11476.00
2023-04-09T07:06:55.318Z,11836.00
2023-04-09T07:07:55.312Z,12220.00
2023-04-09T07:08:55.838Z,12248.00
2023-04-09T07:09:55.352Z,12504.00
2023-04-09T07:10:55.307Z,12836.00
2023-04-09T07:11:55.313Z,12552.00
2023-04-09T07:12:55.276Z,11800.00
2023-04-09T07:13:55.606Z,10928.00
2023-04-09T07:14:55.282Z,10536.00
2023-04-09T07:15:55.375Z,10540.00
2023-04-09T07:16:55.306Z,10944.00
2023-04-09T07:17:55.242Z,12436.00
2023-04-09T07:18:55.237Z,14304.00
2023-04-09T07:19:55.179Z,15656.00
2023-04-09T07:20:55.174Z,16576.00
2023-04-09T07:21:55.314Z,15760.00
2023-04-09T07:22:55.140Z,14576.00
2023-04-09T07:23:55.301Z,13048.00
2023-04-09T07:24:55.148Z,12132.00
2023-04-09T07:25:55.330Z,12580.00
2023-04-09T07:26:55.095Z,13356.00
2023-04-09T07:27:55.087Z,14208.00
2023-04-09T07:28:55.097Z,14968.00
2023-04-09T07:29:55.061Z,15132.00
2023-04-09T07:30:55.049Z,14384.00
2023-04-09T07:31:55.079Z,13860.00
2023-04-09T07:32:55.148Z,14772.00
2023-04-09T07:33:55.293Z,17024.00
2023-04-09T07:34:55.007Z,17760.00
2023-04-09T07:35:56.082Z,17504.00
2023-04-09T07:36:54.979Z,20704.00
2023-04-09T07:37:54.994Z,21120.00
2023-04-09T07:38:55.277Z,22880.00
2023-04-09T07:39:54.985Z,24256.00
2023-04-09T07:40:54.939Z,24128.00
2023-04-09T07:41:54.937Z,26848.00
2023-04-09T07:42:54.918Z,22848.00
2023-04-09T07:43:54.912Z,19392.00
2023-04-09T07:44:54.918Z,20128.00
2023-04-09T07:45:54.887Z,24096.00
2023-04-09T07:46:54.895Z,24096.00
2023-04-09T07:47:54.879Z,23360.00
2023-04-09T07:48:55.104Z,23456.00
2023-04-09T07:49:54.838Z,24256.00
2023-04-09T07:50:54.824Z,28256.00
2023-04-09T07:51:54.815Z,32128.00
2023-04-09T07:52:54.801Z,42464.00
2023-04-09T07:53:54.800Z,44672.00
2023-04-09T07:54:54.807Z,42528.00
2023-04-09T07:55:54.769Z,38208.00
2023-04-09T07:56:54.756Z,35040.00
2023-04-09T07:57:54.750Z,39360.00
2023-04-09T07:58:54.898Z,20352.00
2023-04-09T07:59:54.729Z,24064.00
2023-04-09T08:00:54.745Z,20512.00
2023-04-09T08:01:54.791Z,20384.00
2023-04-09T08:02:55.103Z,27616.00
2023-04-09T08:03:54.801Z,19616.00
2023-04-09T08:04:54.804Z,21984.00
2023-04-09T08:05:54.661Z,26624.00
2023-04-09T08:06:54.664Z,48352.00
2023-04-09T08:07:54.641Z,50784.00
2023-04-09T08:08:54.874Z,51008.00
2023-04-09T08:09:54.616Z,48576.00
2023-04-09T08:10:54.606Z,45440.00
2023-04-09T08:11:54.593Z,43680.00
2023-04-09T08:12:54.595Z,43360.00
2023-04-09T08:13:54.585Z,41248.00
2023-04-09T08:14:54.579Z,44864.00
2023-04-09T08:15:54.588Z,42784.00
2023-04-09T08:16:54.616Z,38464.00
2023-04-09T08:17:54.645Z,33504.00
2023-04-09T08:18:54.955Z,45984.00
2023-04-09T08:19:54.506Z,41856.00
2023-04-09T08:20:54.491Z,43968.00
2023-04-09T08:21:54.498Z,26720.00
2023-04-09T08:22:54.534Z,40128.00
2023-04-09T08:23:54.462Z,47104.00
2023-04-09T08:24:54.485Z,47008.00
2023-04-09T08:25:54.439Z,29056.00
2023-04-09T08:26:54.427Z,36448.00
2023-04-09T08:27:54.425Z,49152.00
2023-04-09T08:28:54.720Z,34528.00
2023-04-09T08:29:54.408Z,24992.00
2023-04-09T08:30:54.378Z,21344.00
2023-04-09T08:31:54.401Z,20896.00
2023-04-09T08:32:54.472Z,21792.00
2023-04-09T08:33:54.346Z,22528.00
2023-04-09T08:34:54.336Z,22848.00
2023-04-09T08:35:54.325Z,36736.00
2023-04-09T08:36:54.363Z,47680.00
2023-04-09T08:37:54.308Z,54784.00
2023-04-09T08:38:54.767Z,41792.00
2023-04-09T08:39:54.290Z,29600.00
2023-04-09T08:40:54.278Z,26720.00
2023-04-09T08:41:54.257Z,25280.00
2023-04-09T08:42:54.243Z,26848.00
2023-04-09T08:43:58.378Z,27712.00
2023-04-09T08:44:54.226Z,28000.00
2023-04-09T08:45:54.249Z,27776.00
2023-04-09T08:46:54.206Z,29760.00
2023-04-09T08:47:54.249Z,37120.00
2023-04-09T08:48:54.582Z,32032.00
2023-04-09T08:49:54.168Z,31904.00
2023-04-09T08:50:54.169Z,36160.00
2023-04-09T08:51:54.148Z,34240.00
2023-04-09T08:52:54.139Z,27840.00
2023-04-09T08:53:54.123Z,22592.00
2023-04-09T08:54:54.167Z,19040.00
2023-04-09T08:55:54.122Z,18784.00
2023-04-09T08:56:54.105Z,27136.00
2023-04-09T08:57:54.080Z,43488.00
2023-04-09T08:58:54.236Z,26752.00
2023-04-09T08:59:54.060Z,26944.00
2023-04-09T09:00:54.055Z,61056.00
2023-04-09T09:01:54.265Z,61856.00
2023-04-09T09:02:54.149Z,63904.00
2023-04-09T09:03:54.147Z,61440.00
2023-04-09T09:04:54.021Z,45056.00
2023-04-09T09:05:53.987Z,58880.00
2023-04-09T09:06:55.554Z,37600.00
2023-04-09T09:07:53.980Z,56416.00
2023-04-09T09:08:54.246Z,63680.00
2023-04-09T09:09:53.958Z,37920.00
2023-04-09T09:10:53.939Z,26976.00
2023-04-09T09:11:53.920Z,25760.00
2023-04-09T09:12:53.913Z,25344.00
2023-04-09T09:13:53.903Z,27456.00
2023-04-09T09:14:53.888Z,30400.00
2023-04-09T09:15:53.884Z,64800.00
2023-04-09T09:16:53.920Z,68032.00
2023-04-09T09:17:53.869Z,64480.00
2023-04-09T09:18:54.678Z,68128.00
2023-04-09T09:19:53.832Z,69728.00
2023-04-09T09:20:53.845Z,67744.00
2023-04-09T09:21:53.814Z,68928.00
2023-04-09T09:22:54.882Z,66528.00
2023-04-09T09:23:53.819Z,67104.00
2023-04-09T09:24:53.884Z,30304.00
2023-04-09T09:25:53.824Z,33952.00
2023-04-09T09:26:53.859Z,45088.00
2023-04-09T09:27:53.920Z,34496.00
2023-04-09T09:28:54.150Z,46976.00
2023-04-09T09:29:54.904Z,22176.00
2023-04-09T09:30:53.988Z,26880.00
2023-04-09T09:31:53.862Z,26368.00
2023-04-09T09:32:53.840Z,30496.00
2023-04-09T09:33:53.808Z,36704.00
2023-04-09T09:34:53.720Z,67296.00
2023-04-09T09:35:54.005Z,40000.00
2023-04-09T09:36:53.880Z,43968.00
2023-04-09T09:37:53.834Z,31136.00
2023-04-09T09:38:54.075Z,68096.00
2023-04-09T09:39:53.816Z,64544.00
2023-04-09T09:40:53.646Z,66720.00
2023-04-09T09:41:53.681Z,64064.00
2023-04-09T09:42:53.722Z,61696.00
2023-04-09T09:43:53.660Z,66080.00
2023-04-09T09:44:53.649Z,50528.00
2023-04-09T09:45:53.792Z,57696.00
2023-04-09T09:46:53.706Z,26368.00
2023-04-09T09:47:53.899Z,23744.00
2023-04-09T09:48:53.877Z,25888.00
2023-04-09T09:49:53.514Z,44064.00
2023-04-09T09:50:53.620Z,37184.00
2023-04-09T09:51:53.588Z,34464.00
2023-04-09T09:52:53.617Z,25792.00
2023-04-09T09:53:53.511Z,36704.00
2023-04-09T09:54:53.525Z,62048.00
2023-04-09T09:55:53.547Z,63488.00
2023-04-09T09:56:53.503Z,62752.00
2023-04-09T09:57:53.581Z,61280.00
2023-04-09T09:58:53.774Z,62016.00
2023-04-09T09:59:53.442Z,64768.00
2023-04-09T10:00:53.731Z,65216.00
2023-04-09T10:01:53.633Z,63872.00
2023-04-09T10:02:53.595Z,59840.00
2023-04-09T10:03:53.371Z,62912.00
2023-04-09T10:04:53.373Z,28192.00
2023-04-09T10:05:53.341Z,24832.00
2023-04-09T10:06:53.667Z,65888.00
2023-04-09T10:07:53.327Z,67488.00
2023-04-09T10:08:53.401Z,67232.00
2023-04-09T10:09:53.279Z,68896.00
2023-04-09T10:10:53.282Z,64928.00
2023-04-09T10:11:53.265Z,64672.00
2023-04-09T10:12:53.257Z,63712.00
2023-04-09T10:13:54.535Z,61728.00
2023-04-09T10:14:53.253Z,45088.00
2023-04-09T10:15:53.303Z,69568.00
2023-04-09T10:16:53.210Z,71392.00
2023-04-09T10:17:53.229Z,68576.00
2023-04-09T10:18:53.363Z,72256.00
2023-04-09T10:19:53.179Z,70944.00
2023-04-09T10:20:53.165Z,28832.00
2023-04-09T10:21:53.503Z,28128.00
2023-04-09T10:22:53.145Z,23840.00
2023-04-09T10:23:53.179Z,20384.00
2023-04-09T10:24:53.141Z,20256.00
2023-04-09T10:25:53.108Z,20800.00
2023-04-09T10:26:53.091Z,23008.00
2023-04-09T10:27:53.131Z,26688.00
2023-04-09T10:28:53.296Z,31616.00
2023-04-09T10:29:53.072Z,35936.00
2023-04-09T10:30:53.098Z,71072.00
2023-04-09T10:31:53.047Z,76864.00
2023-04-09T10:32:53.052Z,78656.00
2023-04-09T10:33:53.026Z,77728.00
2023-04-09T10:34:53.006Z,74496.00
2023-04-09T10:35:53.090Z,74688.00
2023-04-09T10:36:53.079Z,68288.00
2023-04-09T10:37:52.982Z,24128.00
2023-04-09T10:38:53.101Z,21344.00
2023-04-09T10:39:52.953Z,19584.00
2023-04-09T10:40:52.975Z,19424.00
2023-04-09T10:41:52.950Z,19424.00
2023-04-09T10:42:52.930Z,20320.00
2023-04-09T10:43:52.922Z,21440.00
2023-04-09T10:44:52.903Z,23840.00
2023-04-09T10:45:52.893Z,34304.00
2023-04-09T10:46:53.044Z,79264.00
2023-04-09T10:47:52.930Z,30880.00
2023-04-09T10:48:53.077Z,30944.00
2023-04-09T10:49:53.003Z,32864.00
2023-04-09T10:50:53.219Z,42208.00
2023-04-09T10:51:53.205Z,78624.00
2023-04-09T10:52:53.281Z,48384.00
2023-04-09T10:53:52.968Z,73088.00
2023-04-09T10:54:52.935Z,32288.00
2023-04-09T10:55:52.994Z,76032.00
2023-04-09T10:56:52.801Z,29984.00
2023-04-09T10:57:52.761Z,40512.00
2023-04-09T10:58:53.099Z,23808.00
2023-04-09T10:59:52.739Z,21376.00
2023-04-09T11:00:52.752Z,20416.00
2023-04-09T11:01:52.895Z,20512.00
2023-04-09T11:02:52.901Z,23392.00
2023-04-09T11:03:52.767Z,26688.00
2023-04-09T11:04:52.798Z,25856.00
2023-04-09T11:05:52.679Z,25344.00
2023-04-09T11:06:52.657Z,25056.00
2023-04-09T11:07:52.643Z,25728.00
2023-04-09T11:08:52.919Z,25984.00
2023-04-09T11:09:52.627Z,28192.00
2023-04-09T11:10:52.611Z,82976.00
2023-04-09T11:11:52.600Z,78304.00
2023-04-09T11:12:52.609Z,63904.00
2023-04-09T11:13:52.586Z,29248.00
2023-04-09T11:14:52.577Z,26624.00
2023-04-09T11:15:52.579Z,26112.00
2023-04-09T11:16:52.596Z,27584.00
2023-04-09T11:17:52.551Z,30848.00
2023-04-09T11:18:52.902Z,35904.00
2023-04-09T11:19:52.716Z,82976.00
2023-04-09T11:20:52.645Z,32160.00
2023-04-09T11:21:52.485Z,29728.00
2023-04-09T11:22:52.491Z,28960.00
2023-04-09T11:23:52.463Z,59296.00
2023-04-09T11:24:52.458Z,35744.00
2023-04-09T11:25:52.730Z,31904.00
2023-04-09T11:26:52.707Z,28288.00
2023-04-09T11:27:52.435Z,27552.00
2023-04-09T11:28:52.571Z,27104.00
2023-04-09T11:29:52.416Z,24416.00
2023-04-09T11:30:52.412Z,23200.00
2023-04-09T11:31:52.412Z,22688.00
2023-04-09T11:32:52.462Z,23072.00
2023-04-09T11:33:52.347Z,23584.00
2023-04-09T11:34:52.340Z,23904.00
2023-04-09T11:35:52.343Z,24480.00
2023-04-09T11:36:52.316Z,38624.00
2023-04-09T11:37:52.376Z,77920.00
2023-04-09T11:38:52.562Z,45120.00
2023-04-09T11:39:52.298Z,84288.00
2023-04-09T11:40:52.278Z,30400.00
2023-04-09T11:41:52.272Z,39584.00
2023-04-09T11:42:52.260Z,50464.00
2023-04-09T11:43:52.243Z,39072.00
2023-04-09T11:44:52.251Z,76416.00
2023-04-09T11:45:52.219Z,80512.00
2023-04-09T11:46:52.319Z,55456.00
2023-04-09T11:47:52.242Z,62432.00
2023-04-09T11:48:52.384Z,85280.00
2023-04-09T11:49:52.172Z,28384.00
2023-04-09T11:50:52.162Z,22432.00
2023-04-09T11:51:52.146Z,20640.00
2023-04-09T11:52:52.136Z,24512.00
2023-04-09T11:53:52.125Z,25856.00
2023-04-09T11:54:52.124Z,25824.00
2023-04-09T11:55:52.275Z,37152.00
2023-04-09T11:56:52.099Z,72256.00
2023-04-09T11:57:52.080Z,72704.00
2023-04-09T11:58:52.372Z,27200.00
2023-04-09T11:59:52.083Z,74080.00
2023-04-09T12:00:52.092Z,24960.00
2023-04-09T12:01:52.208Z,24384.00
2023-04-09T12:02:52.222Z,75520.00
2023-04-09T12:03:52.271Z,78208.00
2023-04-09T12:04:52.176Z,50176.00
2023-04-09T12:05:52.000Z,41632.00
2023-04-09T12:06:52.005Z,47488.00
2023-04-09T12:07:56.443Z,64896.00
2023-04-09T12:08:52.280Z,78400.00
2023-04-09T12:09:51.957Z,34112.00
2023-04-09T12:10:53.354Z,76736.00
2023-04-09T12:11:51.978Z,78048.00
2023-04-09T12:12:51.942Z,33536.00
2023-04-09T12:13:51.908Z,71232.00
2023-04-09T12:14:51.963Z,34048.00
2023-04-09T12:15:51.893Z,77536.00
2023-04-09T12:16:51.977Z,77280.00
2023-04-09T12:17:51.933Z,75200.00
2023-04-09T12:18:52.233Z,76736.00
2023-04-09T12:19:51.852Z,79648.00